Time;durP1;ratioP1;P1;durP2;ratioP2;P2;SDS_P1;SDS_P2;PMS_P1;PMS_P2;Temp;Humidity;BMP_temperature;BMP_pressure;BME280_temperature;BME280_humidity;BME280_pressure;Samples;Min_cycle;Max_cycle;Signal;HPM_P1;HPM_P2
2022/12/20 00:01:26;;;;;;;17.50;7.38;;;;;;;0.41;64.96;101978.25;5069967;28;20035;-37
2022/12/20 00:03:53;;;;;;;14.63;7.53;;;;;;;0.18;66.48;101975.09;5069861;28;20078;-37
2022/12/20 00:06:20;;;;;;;14.50;7.53;;;;;;;0.38;65.77;101987.13;5069816;28;20020;-37
2022/12/20 00:08:46;;;;;;;20.58;8.50;;;;;;;0.35;66.35;101981.19;5069952;28;20031;-37
2022/12/20 00:11:11;;;;;;;14.13;7.18;;;;;;;0.21;66.62;101978.47;5069883;28;20131;-36
2022/12/20 00:13:37;;;;;;;13.25;7.68;;;;;;;0.24;66.80;101986.16;5069957;28;20028;-36
2022/12/20 00:16:16;;;;;;;17.13;8.05;;;;;;;0.42;67.29;101984.31;5069819;28;20039;-36
2022/12/20 00:18:42;;;;;;;15.95;7.30;;;;;;;0.70;65.13;101981.88;5069593;28;20582;-36
2022/12/20 00:21:10;;;;;;;16.20;8.02;;;;;;;0.72;64.54;101981.81;5069766;28;20507;-36
2022/12/20 00:23:37;;;;;;;15.68;8.05;;;;;;;0.85;65.07;101974.13;5069750;28;20430;-36
2022/12/20 00:26:05;;;;;;;14.13;7.63;;;;;;;0.81;65.40;101969.97;5069926;28;20127;-37
2022/12/20 00:28:31;;;;;;;16.98;7.57;;;;;;;0.57;65.55;101973.88;5069798;28;20048;-37
2022/12/20 00:30:57;;;;;;;16.08;8.30;;;;;;;0.63;65.61;101979.69;5069446;28;20043;-36
2022/12/20 00:33:22;;;;;;;14.45;7.60;;;;;;;0.14;67.77;101972.72;5069639;28;20017;-37
2022/12/20 00:35:48;;;;;;;15.40;8.05;;;;;;;-0.06;68.89;101968.53;5069855;28;20020;-36
2022/12/20 00:38:13;;;;;;;15.75;8.32;;;;;;;-0.31;70.27;101975.03;5069542;28;20020;-37
2022/12/20 00:40:39;;;;;;;19.17;8.65;;;;;;;0.04;69.52;101982.84;5069182;28;20032;-36
2022/12/20 00:43:04;;;;;;;19.45;9.05;;;;;;;0.18;69.34;101982.09;5069249;28;20025;-36
2022/12/20 00:45:29;;;;;;;17.98;9.68;;;;;;;0.19;70.26;101978.53;5069471;28;20027;-36
2022/12/20 00:47:55;;;;;;;17.60;8.75;;;;;;;0.38;70.17;101983.63;5069658;28;20036;-36
2022/12/20 00:50:20;;;;;;;20.33;9.27;;;;;;;0.08;71.26;101973.88;5070665;28;20030;-36
2022/12/20 00:52:46;;;;;;;21.02;9.60;;;;;;;0.14;72.06;101975.34;5073302;28;20096;-36
2022/12/20 00:55:11;;;;;;;20.35;10.00;;;;;;;0.17;72.51;101976.03;5073242;28;20021;-37
2022/12/20 00:57:36;;;;;;;22.83;10.35;;;;;;;0.09;72.58;101967.72;5073033;28;20055;-36
2022/12/20 01:00:03;;;;;;;19.95;10.88;;;;;;;-0.02;73.67;101960.44;5073057;28;20093;-37
2022/12/20 01:02:28;;;;;;;23.75;10.88;;;;;;;0.14;73.13;101965.69;5073010;28;20041;-37
2022/12/20 01:04:54;;;;;;;24.45;11.32;;;;;;;-0.19;75.11;101960.47;5073165;28;20442;-36
2022/12/20 01:07:22;;;;;;;19.88;10.25;;;;;;;-0.01;73.92;101962.13;5072882;28;20016;-37
2022/12/20 01:09:47;;;;;;;24.23;11.70;;;;;;;-0.07;74.81;101965.06;5072828;28;20020;-36
2022/12/20 01:12:13;;;;;;;22.70;10.55;;;;;;;-0.75;76.31;101953.72;5072704;28;20116;-36
2022/12/20 01:14:38;;;;;;;19.00;9.88;;;;;;;-0.28;75.54;101960.94;5072722;28;20544;-36
2022/12/20 01:17:03;;;;;;;19.25;9.85;;;;;;;-0.21;75.30;101944.84;5072271;28;20131;-36
2022/12/20 01:19:29;;;;;;;22.55;9.82;;;;;;;-0.25;74.21;101951.19;5072859;28;20079;-36
2022/12/20 01:21:54;;;;;;;21.77;10.77;;;;;;;-0.35;73.94;101905.47;5072189;28;20025;-36
2022/12/20 01:24:20;;;;;;;18.75;9.00;;;;;;;-0.22;74.54;101944.94;5072980;28;20059;-37
2022/12/20 01:26:45;;;;;;;18.15;8.85;;;;;;;-0.44;75.19;101935.56;5072479;28;20453;-36
2022/12/20 01:29:11;;;;;;;19.88;9.05;;;;;;;-0.45;75.10;101936.47;5072470;28;20051;-36
2022/12/20 01:31:37;;;;;;;19.83;7.97;;;;;;;-0.69;74.67;101930.72;5072685;28;20021;-36
2022/12/20 01:34:02;;;;;;;20.67;9.10;;;;;;;-0.58;74.49;101924.97;5072710;28;20411;-37
2022/12/20 01:36:31;;;;;;;18.50;8.57;;;;;;;-0.82;76.58;101916.56;5072480;28;20357;-36
2022/12/20 01:39:08;;;;;;;18.47;8.60;;;;;;;-0.76;75.85;101907.56;5072422;28;20082;-36
2022/12/20 01:41:35;;;;;;;18.98;8.73;;;;;;;-0.31;75.06;101911.38;5071568;28;20571;-38
2022/12/20 01:44:17;;;;;;;21.00;9.48;;;;;;;-0.58;75.17;101911.03;5072275;28;20394;-36
2022/12/20 01:46:47;;;;;;;22.90;8.65;;;;;;;-0.59;74.93;101918.06;5072177;28;20048;-36
2022/12/20 01:49:23;;;;;;;17.52;8.48;;;;;;;-0.61;74.76;101906.78;5072095;28;20095;-36
2022/12/20 01:51:51;;;;;;;19.25;8.82;;;;;;;-0.72;74.69;101898.66;5071793;28;20024;-40
2022/12/20 01:54:22;;;;;;;20.40;9.10;;;;;;;-0.30;74.46;101898.22;5071139;28;20473;-36
2022/12/20 01:56:58;;;;;;;18.35;8.98;;;;;;;-0.45;75.70;101902.47;5071786;28;20016;-38
2022/12/20 01:59:25;;;;;;;19.50;8.48;;;;;;;-0.33;73.88;101895.75;5071901;28;20023;-36
2022/12/20 02:01:50;;;;;;;18.38;8.90;;;;;;;-0.59;74.14;101904.97;5071535;28;20027;-36
2022/12/20 02:04:16;;;;;;;20.48;9.23;;;;;;;-0.55;74.56;101898.66;5071872;28;20024;-37
2022/12/20 02:06:41;;;;;;;18.95;8.65;;;;;;;-0.68;74.26;101894.97;5071735;28;20040;-36
2022/12/20 02:09:10;;;;;;;17.42;8.63;;;;;;;-0.89;75.58;101894.28;5071641;28;20028;-36
2022/12/20 02:11:53;;;;;;;18.67;8.95;;;;;;;-0.81;74.74;101894.75;5071536;28;20020;-37
2022/12/20 02:14:56;;;;;;;17.92;8.30;;;;;;;-0.70;74.44;101892.44;5071290;28;20028;-36
2022/12/20 02:17:27;;;;;;;21.52;9.30;;;;;;;-0.49;74.22;101884.41;5071263;28;20067;-36
2022/12/20 02:20:26;;;;;;;21.40;8.52;;;;;;;-0.81;74.03;101879.06;5071086;28;20020;-36
2022/12/20 02:22:52;;;;;;;22.27;8.48;;;;;;;-0.88;74.41;101881.13;5059975;28;20513;-36
2022/12/20 02:25:44;;;;;;;19.65;9.60;;;;;;;-0.89;75.08;101889.91;5051365;28;20041;-36
2022/12/20 02:28:16;;;;;;;16.90;8.73;;;;;;;-0.72;74.31;101885.56;5051392;28;20446;-36
2022/12/20 02:30:45;;;;;;;18.92;9.10;;;;;;;-0.74;73.90;101892.66;5051447;28;20028;-36
2022/12/20 02:33:13;;;;;;;20.48;9.48;;;;;;;-0.81;74.14;101884.28;5051414;28;20075;-36
2022/12/20 02:35:40;;;;;;;19.00;8.15;;;;;;;-1.01;75.66;101885.25;5051613;28;20131;-36
2022/12/20 02:38:26;;;;;;;19.27;9.32;;;;;;;-1.07;75.04;101888.19;5051216;28;20021;-36
2022/12/20 02:40:57;;;;;;;19.63;9.38;;;;;;;-0.75;74.49;101883.13;5054955;28;20126;-36
2022/12/20 02:46:10;;;;;;;19.63;9.52;;;;;;;-0.72;72.63;101875.09;5071076;28;20425;-37
2022/12/20 02:48:38;;;;;;;18.80;9.15;;;;;;;-0.87;73.16;101874.97;5070791;28;20024;-36
2022/12/20 02:51:05;;;;;;;21.70;10.10;;;;;;;-1.00;73.98;101881.75;5070755;28;20103;-36
2022/12/20 02:53:31;;;;;;;20.10;9.00;;;;;;;-0.99;73.70;101886.03;5070834;28;20059;-36
2022/12/20 02:56:16;;;;;;;18.17;9.38;;;;;;;-0.87;73.82;101871.53;5070812;28;20024;-36
2022/12/20 02:59:02;;;;;;;19.35;9.15;;;;;;;-0.71;73.95;101869.81;5070909;28;20078;-37
2022/12/20 03:01:33;;;;;;;23.30;10.15;;;;;;;-0.63;72.80;101866.78;5070500;28;20031;-36
2022/12/20 03:04:00;;;;;;;21.98;9.77;;;;;;;-0.75;73.99;101883.13;5070821;28;20051;-37
2022/12/20 03:06:26;;;;;;;19.77;8.82;;;;;;;-0.84;73.51;101868.75;5070505;28;20097;-37
2022/12/20 03:08:51;;;;;;;21.98;9.55;;;;;;;-1.01;73.79;101866.97;5070935;28;20058;-37
2022/12/20 03:11:16;;;;;;;18.92;8.75;;;;;;;-0.92;75.31;101870.91;5070481;28;20483;-37
2022/12/20 03:13:42;;;;;;;20.05;9.10;;;;;;;-0.88;74.09;101869.81;5070398;28;20056;-37
2022/12/20 03:16:09;;;;;;;21.02;9.48;;;;;;;-0.77;73.37;101861.44;5070267;28;20508;-36
2022/12/20 03:18:35;;;;;;;21.55;9.45;;;;;;;-0.87;73.29;101867.13;5070321;28;20140;-37
2022/12/20 03:21:00;;;;;;;17.08;8.50;;;;;;;-0.74;73.77;101863.88;5070568;28;20471;-37
2022/12/20 03:23:26;;;;;;;23.33;10.13;;;;;;;-0.70;73.13;101852.38;5070320;28;20024;-36
2022/12/20 03:25:51;;;;;;;19.95;9.27;;;;;;;-1.07;73.82;101854.22;5070304;28;20051;-36
2022/12/20 03:28:16;;;;;;;22.63;9.55;;;;;;;-1.09;74.34;101850.84;5070189;28;20063;-36
2022/12/20 03:30:42;;;;;;;22.73;9.63;;;;;;;-0.94;74.75;101854.47;5069993;28;20499;-37
2022/12/20 03:33:07;;;;;;;20.67;10.25;;;;;;;-0.81;74.91;101864.19;5070017;28;20436;-37
2022/12/20 03:35:32;;;;;;;27.95;13.27;;;;;;;-0.83;73.77;101860.00;5070374;28;20055;-37
2022/12/20 03:37:58;;;;;;;26.33;12.32;;;;;;;-0.83;74.24;101862.59;5070170;28;20090;-36
2022/12/20 03:40:23;;;;;;;26.13;10.95;;;;;;;-0.77;73.75;101869.28;5070263;28;20423;-36
2022/12/20 03:42:49;;;;;;;22.40;10.82;;;;;;;-0.60;73.15;101874.50;5070218;28;20101;-36
2022/12/20 03:45:14;;;;;;;22.60;10.63;;;;;;;-0.72;74.67;101875.97;5070263;28;20085;-36
2022/12/20 03:47:40;;;;;;;21.23;10.20;;;;;;;-0.72;74.57;101873.38;5070115;28;20036;-35
2022/12/20 03:50:06;;;;;;;21.23;9.75;;;;;;;-0.66;74.43;101875.66;5070076;28;20024;-36
2022/12/20 03:52:31;;;;;;;17.65;9.20;;;;;;;-0.77;74.81;101884.97;5070042;28;20028;-37
2022/12/20 03:54:57;;;;;;;19.95;9.50;;;;;;;-0.76;73.25;101878.81;5070035;28;20468;-36
2022/12/20 03:57:22;;;;;;;23.02;10.20;;;;;;;-0.81;73.59;101879.06;5070063;28;20111;-36
2022/12/20 03:59:48;;;;;;;23.27;10.80;;;;;;;-0.98;73.97;101878.13;5070058;28;20401;-36
2022/12/20 04:02:13;;;;;;;22.02;9.80;;;;;;;-0.74;73.51;101874.34;5070270;28;20029;-35
2022/12/20 04:04:39;;;;;;;20.55;10.02;;;;;;;-0.80;74.03;101871.13;5070210;28;20334;-36
2022/12/20 04:07:04;;;;;;;21.38;10.25;;;;;;;-0.75;74.38;101876.13;5069985;28;20029;-35
2022/12/20 04:09:29;;;;;;;26.25;11.60;;;;;;;-0.81;74.21;101874.66;5069979;28;20370;-37
2022/12/20 04:11:55;;;;;;;44.50;22.00;;;;;;;-0.78;74.74;101881.53;5070206;28;20028;-36
2022/12/20 04:14:20;;;;;;;26.90;13.63;;;;;;;-0.61;74.21;101881.50;5069855;28;20056;-36
2022/12/20 04:16:45;;;;;;;25.48;11.75;;;;;;;-0.98;74.42;101866.81;5070056;28;20032;-38
2022/12/20 04:19:11;;;;;;;40.50;18.08;;;;;;;-1.03;74.31;101884.50;5069482;28;20132;-35
2022/12/20 04:21:36;;;;;;;21.33;10.18;;;;;;;-1.06;73.50;101882.06;5069804;28;20039;-36
2022/12/20 04:24:03;;;;;;;17.65;9.45;;;;;;;-1.20;73.89;101867.91;5069725;28;20029;-36
2022/12/20 04:26:29;;;;;;;21.75;9.35;;;;;;;-1.28;73.53;101872.63;5072901;28;20036;-36
2022/12/20 04:28:54;;;;;;;21.42;9.13;;;;;;;-1.23;73.01;101867.22;5074099;28;20028;-36
2022/12/20 04:31:20;;;;;;;22.63;9.65;;;;;;;-0.88;72.48;101875.88;5073093;28;20024;-36
2022/12/20 04:33:46;;;;;;;20.98;9.88;;;;;;;-0.81;71.70;101884.28;5073377;28;20025;-35
2022/12/20 04:36:12;;;;;;;25.85;10.85;;;;;;;-0.95;72.36;101881.50;5073699;28;20085;-36
2022/12/20 04:38:37;;;;;;;19.30;9.27;;;;;;;-0.94;71.24;101870.13;5073914;28;20112;-35
2022/12/20 04:41:02;;;;;;;19.70;9.32;;;;;;;-1.07;74.35;101881.19;5073522;28;20031;-37
2022/12/20 04:43:28;;;;;;;25.17;10.75;;;;;;;-0.99;72.80;101880.81;5073545;28;20032;-37
2022/12/20 04:45:55;;;;;;;26.95;11.20;;;;;;;-1.15;73.01;101869.44;5073405;28;20040;-35
2022/12/20 04:48:21;;;;;;;28.42;11.27;;;;;;;-1.12;72.98;101874.50;5073488;28;20110;-36
2022/12/20 04:50:49;;;;;;;30.50;11.23;;;;;;;-1.19;73.12;101873.97;5073286;28;20209;-37
2022/12/20 04:55:59;;;;;;;21.77;10.00;;;;;;;-1.03;72.32;101876.66;5073738;28;20051;-36
2022/12/20 04:58:24;;;;;;;25.80;10.63;;;;;;;-1.02;71.99;101866.13;5073100;28;20427;-36
2022/12/20 05:00:53;;;;;;;28.25;10.48;;;;;;;-1.44;75.22;101869.94;5072912;28;20203;-36
2022/12/20 05:03:19;;;;;;;25.20;10.40;;;;;;;-1.02;73.46;101860.91;5072972;28;20028;-36
2022/12/20 05:05:45;;;;;;;28.48;11.15;;;;;;;-1.15;73.65;101859.00;5072779;28;20060;-36
2022/12/20 05:08:10;;;;;;;24.17;10.48;;;;;;;-1.33;73.22;101845.03;5072814;28;20115;-36
2022/12/20 05:10:36;;;;;;;29.35;11.20;;;;;;;-1.34;74.04;101866.88;5072741;28;20036;-36
2022/12/20 05:13:01;;;;;;;25.15;11.15;;;;;;;-1.57;74.55;101864.44;5072545;28;20460;-36
2022/12/20 05:15:28;;;;;;;22.85;10.60;;;;;;;-1.86;75.45;101865.00;5072808;28;20054;-36
2022/12/20 05:17:58;;;;;;;25.25;11.15;;;;;;;-1.70;74.90;101842.44;5072564;28;20052;-36
2022/12/20 05:20:24;;;;;;;22.38;10.70;;;;;;;-1.44;74.12;101859.47;5072413;28;20107;-36
2022/12/20 05:28:18;;;;;;;29.35;10.93;;;;;;;-2.29;77.72;101857.34;5072517;28;20059;-36
2022/12/20 05:30:43;;;;;;;26.13;11.43;;;;;;;-2.32;79.39;101851.41;5072347;28;20428;-36
2022/12/20 05:33:08;;;;;;;26.27;11.77;;;;;;;-2.02;77.55;101855.25;5072222;28;20028;-36
2022/12/20 05:35:34;;;;;;;27.58;13.35;;;;;;;-2.17;77.59;101848.09;5063441;28;20079;-35
2022/12/20 05:38:00;;;;;;;32.95;14.77;;;;;;;-1.97;79.53;101848.03;5053098;28;20029;-36
2022/12/20 05:40:25;;;;;;;47.35;23.05;;;;;;;-1.74;80.01;101846.13;5060468;28;20036;-36
2022/12/20 05:42:50;;;;;;;32.45;13.38;;;;;;;-2.09;77.35;101843.41;5072073;28;20025;-37
2022/12/20 05:45:16;;;;;;;35.38;15.57;;;;;;;-2.27;77.79;101846.84;5066009;28;20032;-36
2022/12/20 05:47:41;;;;;;;34.33;13.35;;;;;;;-2.67;78.08;101848.59;5063400;28;20020;-35
2022/12/20 05:50:07;;;;;;;31.38;12.70;;;;;;;-2.56;79.54;101848.97;5051479;28;20513;-36
2022/12/20 05:52:32;;;;;;;32.80;12.30;;;;;;;-2.56;79.87;101848.97;5050409;28;20028;-36
2022/12/20 05:54:58;;;;;;;34.03;12.77;;;;;;;-2.69;79.70;101856.47;5050222;28;20017;-36
2022/12/20 05:57:24;;;;;;;35.10;13.85;;;;;;;-2.48;80.62;101852.09;5051068;28;20377;-37
2022/12/20 05:59:49;;;;;;;29.38;12.55;;;;;;;-2.64;80.19;101843.28;5049860;28;20107;-36
2022/12/20 06:02:15;;;;;;;29.15;13.88;;;;;;;-2.37;81.58;101851.63;5050204;28;20665;-34
2022/12/20 06:04:40;;;;;;;33.40;14.32;;;;;;;-2.17;80.11;101851.59;5051235;28;20029;-35
2022/12/20 06:07:05;;;;;;;35.47;14.57;;;;;;;-1.98;79.15;101842.88;5050349;28;20413;-36
2022/12/20 06:09:31;;;;;;;32.25;14.73;;;;;;;-1.76;78.52;101847.97;5050158;28;20021;-36
2022/12/20 06:11:58;;;;;;;34.28;15.20;;;;;;;-1.48;78.59;101850.09;5050011;28;20441;-36
2022/12/20 06:14:24;;;;;;;36.85;15.48;;;;;;;-1.33;78.68;101845.91;5066057;28;20067;-38
2022/12/20 06:16:49;;;;;;;32.03;14.02;;;;;;;-1.05;77.77;101848.00;5077629;28;20063;-36
2022/12/20 06:19:15;;;;;;;37.25;15.27;;;;;;;-0.88;77.78;101861.97;5070741;28;20049;-36
2022/12/20 06:21:40;;;;;;;44.13;19.48;;;;;;;-0.76;76.68;101855.28;5069661;28;20481;-36
2022/12/20 06:24:06;;;;;;;37.50;16.08;;;;;;;-0.65;75.13;101851.22;5071516;28;20036;-36
2022/12/20 06:26:35;;;;;;;40.33;15.60;;;;;;;-0.53;75.35;101856.69;5071267;28;20028;-36
2022/12/20 06:29:02;;;;;;;47.25;15.98;;;;;;;-0.18;74.52;101867.09;5071326;28;20055;-34
2022/12/20 06:31:28;;;;;;;34.83;15.75;;;;;;;-0.13;74.67;101865.06;5070792;28;20053;-36
2022/12/20 06:33:53;;;;;;;35.05;14.38;;;;;;;-0.01;73.30;101864.41;5069476;28;20032;-36
2022/12/20 06:36:19;;;;;;;35.88;14.52;;;;;;;-0.01;72.65;101862.63;5069704;28;20189;-36
2022/12/20 06:38:44;;;;;;;35.13;15.93;;;;;;;0.30;73.28;101862.72;5069766;28;20028;-36
2022/12/20 06:41:09;;;;;;;42.42;17.33;;;;;;;0.38;74.73;101861.38;5069866;28;20024;-38
2022/12/20 06:43:35;;;;;;;137.30;67.05;;;;;;;0.47;73.75;101857.38;5070792;28;20028;-37
2022/12/20 06:46:00;;;;;;;54.50;22.02;;;;;;;0.49;72.56;101850.28;5070742;28;20111;-36
2022/12/20 06:48:25;;;;;;;34.42;16.30;;;;;;;0.67;73.07;101842.34;5070353;28;20073;-37
2022/12/20 06:50:51;;;;;;;36.40;15.57;;;;;;;0.88;72.27;101853.34;5071133;28;20013;-35
2022/12/20 06:53:16;;;;;;;46.17;16.80;;;;;;;1.01;72.65;101856.09;5070950;28;20029;-38
2022/12/20 06:55:42;;;;;;;44.88;17.15;;;;;;;1.29;70.73;101855.31;5071050;28;20062;-35
2022/12/20 06:58:08;;;;;;;40.38;17.55;;;;;;;1.32;71.52;101848.09;5071523;28;20130;-36
2022/12/20 07:00:33;;;;;;;31.33;14.27;;;;;;;1.24;71.24;101847.72;5071007;28;20469;-36
2022/12/20 07:02:59;;;;;;;29.60;14.35;;;;;;;1.29;69.89;101844.81;5070817;28;20079;-35
2022/12/20 07:05:24;;;;;;;27.42;14.38;;;;;;;1.49;69.27;101852.34;5070874;28;20357;-36
2022/12/20 07:07:50;;;;;;;26.30;13.80;;;;;;;1.63;68.69;101850.66;5070829;28;20020;-36
2022/12/20 07:10:15;;;;;;;28.35;13.57;;;;;;;1.91;68.10;101853.25;5071338;28;20098;-36
2022/12/20 07:12:41;;;;;;;28.38;13.02;;;;;;;2.34;65.81;101853.19;5070525;28;20399;-37
2022/12/20 07:15:07;;;;;;;22.50;12.57;;;;;;;2.53;64.19;101851.97;5071142;28;20031;-36
2022/12/20 07:17:33;;;;;;;33.42;14.00;;;;;;;2.80;64.64;101849.34;5070860;28;20071;-38
2022/12/20 07:19:59;;;;;;;41.05;17.88;;;;;;;3.14;61.95;101839.16;5070969;28;20036;-36
2022/12/20 07:22:24;;;;;;;28.98;13.88;;;;;;;3.18;61.13;101843.28;5070753;28;20036;-36
2022/12/20 07:24:50;;;;;;;23.95;12.13;;;;;;;3.52;59.91;101854.13;5070976;28;20088;-35
2022/12/20 07:27:15;;;;;;;21.50;11.38;;;;;;;4.02;57.29;101851.56;5070535;28;20108;-38
2022/12/20 07:29:40;;;;;;;20.48;10.52;;;;;;;4.06;56.59;101843.31;5070902;28;20024;-37
2022/12/20 07:32:06;;;;;;;17.92;10.27;;;;;;;4.28;56.17;101837.34;5070639;28;20016;-37
2022/12/20 07:34:32;;;;;;;17.38;10.63;;;;;;;4.16;56.17;101835.56;5070753;28;20492;-37
2022/12/20 07:36:58;;;;;;;20.35;11.70;;;;;;;4.46;54.71;101823.78;5070770;28;20020;-36
2022/12/20 07:39:23;;;;;;;24.48;12.43;;;;;;;4.74;53.82;101824.34;5070639;28;20458;-38
2022/12/20 07:41:53;;;;;;;18.85;10.88;;;;;;;5.04;53.94;101821.19;5070198;28;20472;-36
2022/12/20 07:44:18;;;;;;;22.20;11.73;;;;;;;5.09;53.12;101824.34;5070584;28;20439;-36
2022/12/20 07:46:43;;;;;;;23.35;12.23;;;;;;;4.82;53.42;101820.19;5070659;28;20097;-36
2022/12/20 07:49:09;;;;;;;22.05;11.77;;;;;;;4.92;54.07;101817.69;5070205;28;20020;-36
2022/12/20 07:51:38;;;;;;;22.13;12.23;;;;;;;5.44;52.60;101816.31;5070518;28;20051;-36
2022/12/20 07:54:11;;;;;;;23.23;12.70;;;;;;;5.49;54.65;101816.81;5070324;28;20025;-44
2022/12/20 07:56:41;;;;;;;24.60;13.70;;;;;;;5.29;52.93;101826.28;5069880;28;20450;-36
2022/12/20 07:59:09;;;;;;;21.50;12.07;;;;;;;5.33;52.05;101818.13;5069964;28;20024;-36
2022/12/20 08:01:35;;;;;;;20.33;11.38;;;;;;;5.67;51.39;101817.19;5070506;28;20091;-36
2022/12/20 08:04:10;;;;;;;20.33;11.50;;;;;;;6.10;49.53;101812.94;5070248;28;20036;-37
2022/12/20 08:06:36;;;;;;;19.88;11.57;;;;;;;6.21;50.11;101807.63;5070445;28;20032;-37
2022/12/20 08:09:04;;;;;;;21.17;11.55;;;;;;;6.42;50.03;101797.09;5070327;28;20059;-36
2022/12/20 08:11:34;;;;;;;25.80;12.90;;;;;;;5.92;49.71;101794.09;5070105;28;20031;-35
2022/12/20 08:13:59;;;;;;;;;;;;;;;6.17;49.32;101800.06;5070712;28;20029;-36
2022/12/20 08:16:25;;;;;;;19.25;11.20;;;;;;;5.85;49.96;101793.75;5070680;28;19919;-36
2022/12/20 08:18:50;;;;;;;25.02;11.65;;;;;;;5.98;50.05;101793.63;5069907;28;20377;-36
2022/12/20 08:21:16;;;;;;;24.35;12.18;;;;;;;5.91;49.61;101767.78;5069986;28;20041;-36
2022/12/20 08:23:41;;;;;;;21.15;12.05;;;;;;;6.18;49.43;101786.72;5069957;28;20028;-36
2022/12/20 08:26:06;;;;;;;19.70;11.23;;;;;;;6.20;49.53;101787.44;5069901;28;20029;-35
2022/12/20 08:28:33;;;;;;;24.05;12.20;;;;;;;6.20;48.96;101786.59;5069920;28;20130;-36
2022/12/20 08:31:06;;;;;;;21.45;12.45;;;;;;;6.34;47.89;101781.03;5069953;28;20104;-36
2022/12/20 08:33:33;;;;;;;21.65;11.70;;;;;;;6.70;48.44;101788.69;5069934;28;20040;-36
2022/12/20 08:36:01;;;;;;;24.17;11.35;;;;;;;6.90;47.11;101777.25;5069638;28;20025;-36
2022/12/20 08:38:27;;;;;;;21.23;11.30;;;;;;;6.87;47.49;101774.88;5069350;28;20078;-36
2022/12/20 08:40:53;;;;;;;20.35;11.05;;;;;;;6.47;47.46;101775.56;5069107;28;20028;-36
2022/12/20 08:43:18;;;;;;;22.75;11.73;;;;;;;6.52;47.26;101767.25;5067276;28;20565;-35
2022/12/20 08:45:44;;;;;;;18.92;11.23;;;;;;;6.39;47.34;101760.31;5067978;28;20028;-36
2022/12/20 08:48:09;;;;;;;21.20;11.15;;;;;;;6.45;47.89;101767.78;5068564;28;20118;-36
2022/12/20 08:50:35;;;;;;;19.23;10.70;;;;;;;6.89;47.33;101764.16;5069011;28;20038;-36
2022/12/20 08:53:01;;;;;;;20.90;11.25;;;;;;;6.41;47.87;101761.03;5068834;28;20029;-36
2022/12/20 08:55:26;;;;;;;17.40;10.13;;;;;;;7.08;46.26;101755.47;5069168;28;20127;-35
2022/12/20 08:57:51;;;;;;;19.80;10.15;;;;;;;7.25;45.08;101752.22;5069449;28;20055;-36
2022/12/20 09:00:17;;;;;;;17.02;10.23;;;;;;;7.50;45.18;101750.94;5069627;28;20064;-36
2022/12/20 09:02:43;;;;;;;19.33;11.48;;;;;;;7.50;46.01;101747.44;5069613;28;20024;-36
2022/12/20 09:05:09;;;;;;;18.33;10.95;;;;;;;7.26;45.92;101745.13;5069545;28;20071;-36
2022/12/20 09:07:34;;;;;;;19.52;11.10;;;;;;;6.78;46.64;101742.09;5069522;28;20024;-36
2022/12/20 09:09:59;;;;;;;22.58;11.75;;;;;;;7.03;46.88;101740.84;5069615;28;20111;-37
2022/12/20 09:12:25;;;;;;;24.45;11.82;;;;;;;7.26;45.68;101737.19;5072123;28;20025;-36
2022/12/20 09:14:50;;;;;;;26.95;12.02;;;;;;;7.18;46.38;101729.91;5073094;28;20027;-37
2022/12/20 09:17:15;;;;;;;20.77;11.32;;;;;;;7.29;46.59;101728.97;5072552;28;20506;-36
2022/12/20 09:19:41;;;;;;;24.95;12.23;;;;;;;7.01;47.28;101734.00;5072777;28;20025;-36
2022/12/20 09:22:07;;;;;;;20.70;11.45;;;;;;;7.29;46.79;101721.88;5072520;28;20025;-37
2022/12/20 09:24:32;;;;;;;19.52;11.20;;;;;;;7.17;46.29;101721.09;5072390;28;20074;-36
2022/12/20 09:26:58;;;;;;;21.15;12.10;;;;;;;6.84;47.20;101712.44;5072691;28;20028;-36
2022/12/20 09:29:24;;;;;;;21.92;11.73;;;;;;;6.91;47.42;101704.84;5072776;28;20032;-36
2022/12/20 09:31:49;;;;;;;21.25;10.90;;;;;;;6.59;47.81;101705.75;5072532;28;20024;-37
2022/12/20 09:34:15;;;;;;;17.88;10.40;;;;;;;6.62;48.15;101705.50;5072419;28;20024;-36
2022/12/20 09:36:40;;;;;;;18.63;10.35;;;;;;;6.66;47.95;101695.47;5072699;28;20028;-37
2022/12/20 09:39:06;;;;;;;19.00;10.82;;;;;;;6.56;48.24;101687.50;5072603;28;20085;-36
2022/12/20 09:41:38;;;;;;;19.50;11.07;;;;;;;6.23;48.73;101681.44;5072610;28;20104;-36
2022/12/20 09:44:13;;;;;;;20.50;12.00;;;;;;;6.79;47.79;101677.59;5072121;28;20425;-36
2022/12/20 09:46:39;;;;;;;17.50;9.73;;;;;;;7.06;46.47;101676.19;5072285;28;20021;-36
2022/12/20 09:49:05;;;;;;;18.60;9.48;;;;;;;7.16;46.53;101678.88;5072157;28;20127;-36
2022/12/20 09:51:53;;;;;;;18.02;9.45;;;;;;;6.64;47.56;101674.47;5072186;28;20100;-36
2022/12/20 09:54:21;;;;;;;18.98;9.77;;;;;;;6.29;47.31;101655.47;5072369;28;20093;-37
2022/12/20 09:56:58;;;;;;;18.75;9.77;;;;;;;5.85;49.04;101648.41;5072761;28;20533;-36
2022/12/20 09:59:24;;;;;;;18.77;10.15;;;;;;;6.77;47.88;101650.44;5072363;28;20037;-37
2022/12/20 10:01:50;;;;;;;15.30;8.05;;;;;;;6.88;46.59;101646.03;5072384;28;20025;-37
2022/12/20 10:04:24;;;;;;;17.50;8.52;;;;;;;6.47;47.33;101645.94;5072308;28;20035;-36
2022/12/20 10:06:52;;;;;;;14.85;8.50;;;;;;;6.47;45.70;101645.94;5072323;28;20051;-37
2022/12/20 10:09:59;;;;;;;17.25;9.35;;;;;;;6.46;47.47;101637.19;5071815;28;20119;-37
2022/12/20 10:12:46;;;;;;;16.58;8.95;;;;;;;6.78;47.34;101641.53;5070825;28;20516;-36
2022/12/20 10:15:32;;;;;;;17.52;9.20;;;;;;;7.00;46.32;101639.66;5071738;28;20675;-36
2022/12/20 10:18:18;;;;;;;18.02;8.15;;;;;;;7.00;45.75;101632.56;5071668;28;20092;-37
2022/12/20 10:20:54;;;;;;;13.05;7.47;;;;;;;6.97;46.20;101624.91;5071792;28;20036;-37
2022/12/20 10:23:34;;;;;;;14.40;8.27;;;;;;;6.97;46.01;101629.34;5070660;28;20472;-37
2022/12/20 10:26:00;;;;;;;14.55;7.95;;;;;;;7.17;45.64;101611.72;5071464;28;20094;-36
2022/12/20 10:28:29;;;;;;;16.55;8.77;;;;;;;7.29;45.83;101613.28;5071428;28;20032;-37
2022/12/20 10:31:00;;;;;;;18.42;10.40;;;;;;;7.17;45.94;101598.47;5071213;28;20028;-36
2022/12/20 10:33:27;;;;;;;16.80;9.02;;;;;;;6.69;45.83;101604.44;5071589;28;20033;-36
2022/12/20 10:35:52;;;;;;;15.82;8.98;;;;;;;6.62;46.36;101604.13;5071771;28;20025;-36
2022/12/20 10:38:19;;;;;;;16.35;8.70;;;;;;;6.98;45.78;101593.97;5071399;28;20032;-37
2022/12/20 10:41:00;;;;;;;16.25;8.75;;;;;;;7.00;46.34;101579.59;5071147;28;20408;-36
2022/12/20 10:43:26;;;;;;;15.20;8.38;;;;;;;6.68;47.00;101574.47;5071552;28;20054;-37
2022/12/20 10:46:03;;;;;;;16.75;9.00;;;;;;;6.71;47.47;101571.59;5071005;28;20488;-36
2022/12/20 10:48:32;;;;;;;17.60;8.82;;;;;;;6.86;46.73;101577.34;5070376;28;20464;-37
2022/12/20 10:51:02;;;;;;;;;;;;;;;6.75;47.72;101561.56;5071363;28;20036;-37
2022/12/20 10:53:30;;;;;;;15.77;8.63;;;;;;;6.26;48.20;101559.56;5070701;28;19935;-36
2022/12/20 10:56:21;;;;;;;18.15;9.50;;;;;;;6.45;47.23;101560.59;5069249;28;20420;-37
2022/12/20 10:58:55;;;;;;;16.60;9.23;;;;;;;6.37;47.90;101561.25;5070810;28;20107;-36
2022/12/20 11:01:23;;;;;;;15.00;8.77;;;;;;;6.61;47.75;101554.84;5070862;28;20090;-36
2022/12/20 11:03:53;;;;;;;20.02;10.10;;;;;;;6.30;48.33;101546.06;5071018;28;20029;-37
2022/12/20 11:06:21;;;;;;;18.67;9.93;;;;;;;6.46;47.84;101541.13;5071418;28;20055;-37
2022/12/20 11:08:47;;;;;;;14.68;8.63;;;;;;;5.38;47.88;101525.53;5070903;28;20107;-37
2022/12/20 11:11:15;;;;;;;19.05;9.35;;;;;;;6.05;48.58;101533.16;5069340;28;20392;-37
2022/12/20 11:13:42;;;;;;;17.83;10.05;;;;;;;6.45;48.08;101521.78;5070761;28;20103;-36
2022/12/20 11:16:24;;;;;;;17.85;9.25;;;;;;;6.67;48.39;101519.09;5070480;28;20052;-36
2022/12/20 11:19:05;;;;;;;14.90;8.57;;;;;;;6.25;47.91;101514.75;5070516;28;20060;-36
2022/12/20 11:21:56;;;;;;;15.35;8.65;;;;;;;6.25;47.74;101502.34;5070706;28;20372;-37
2022/12/20 11:24:32;;;;;;;18.95;9.45;;;;;;;6.79;46.67;101497.66;5070795;28;20461;-37
2022/12/20 11:27:43;;;;;;;14.15;7.82;;;;;;;6.60;45.89;101500.25;5070545;28;20032;-37
2022/12/20 11:30:16;;;;;;;15.05;7.97;;;;;;;5.97;45.99;101488.00;5070224;28;20029;-37
2022/12/20 11:32:51;;;;;;;19.05;8.55;;;;;;;6.07;45.99;101482.78;5070690;28;20377;-36